Time;durP1;ratioP1;P1;durP2;ratioP2;P2;SDS_P1;SDS_P2;PMS_P1;PMS_P2;Temp;Humidity;BMP_temperature;BMP_pressure;BME280_temperature;BME280_humidity;BME280_pressure;Samples;Min_cycle;Max_cycle;Signal;HPM_P1;HPM_P2
2022/10/17 00:04:35;;;;;;;7.55;6.47;;;;;;;;;;9928464;29;20081;-63
2022/10/17 00:09:33;;;;;;;9.77;6.75;;;;;;;;;;9926991;29;21195;-63
2022/10/17 00:14:31;;;;;;;11.30;5.07;;;;;;;;;;9926084;29;20080;-62
2022/10/17 00:19:31;;;;;;;8.80;5.60;;;;;;;;;;9924460;29;20076;-63
2022/10/17 00:24:30;;;;;;;7.93;4.82;;;;;;;;;;9926025;29;20085;-63
2022/10/17 00:29:28;;;;;;;10.27;4.95;;;;;;;;;;9925424;29;20083;-62
2022/10/17 00:34:29;;;;;;;8.88;3.97;;;;;;;;;;9925984;29;20510;-62
2022/10/17 00:39:29;;;;;;;7.43;4.57;;;;;;;;;;9926833;29;20504;-62
2022/10/17 00:44:47;;;;;;;7.78;4.63;;;;;;;;;;9926218;29;20077;-63
2022/10/17 00:49:47;;;;;;;7.30;4.95;;;;;;;;;;9922401;29;20115;-62
2022/10/17 00:54:48;;;;;;;7.18;4.85;;;;;;;;;;9922921;29;20083;-64
2022/10/17 00:59:49;;;;;;;8.27;4.90;;;;;;;;;;9924113;29;20080;-63
2022/10/17 01:04:48;;;;;;;8.60;5.35;;;;;;;;;;9905815;29;20073;-62
2022/10/17 01:09:47;;;;;;;7.50;6.22;;;;;;;;;;9923477;29;20076;-62
2022/10/17 01:14:48;;;;;;;6.03;5.20;;;;;;;;;;9920712;29;20087;-63
2022/10/17 01:20:05;;;;;;;6.53;5.78;;;;;;;;;;9924247;29;20076;-63
2022/10/17 01:25:15;;;;;;;6.55;5.13;;;;;;;;;;9905286;29;20530;-62
2022/10/17 01:30:32;;;;;;;6.88;4.97;;;;;;;;;;9938020;29;20073;-62
2022/10/17 01:35:38;;;;;;;5.60;4.78;;;;;;;;;;9908100;29;20084;-63
2022/10/17 01:40:37;;;;;;;7.18;4.93;;;;;;;;;;9934779;29;20716;-63
2022/10/17 01:45:38;;;;;;;6.07;4.45;;;;;;;;;;9922131;29;20084;-63
2022/10/17 01:50:41;;;;;;;8.45;4.40;;;;;;;;;;9921550;29;20084;-62
2022/10/17 01:55:43;;;;;;;4.60;3.92;;;;;;;;;;9925841;29;20080;-61
2022/10/17 02:00:42;;;;;;;6.50;3.80;;;;;;;;;;9920355;29;20080;-63
2022/10/17 02:05:42;;;;;;;8.05;3.85;;;;;;;;;;9906389;29;20529;-63
2022/10/17 02:10:43;;;;;;;5.03;4.53;;;;;;;;;;9922846;29;20170;-63
2022/10/17 02:15:55;;;;;;;6.15;4.03;;;;;;;;;;9920234;29;20541;-64
2022/10/17 02:20:57;;;;;;;7.82;4.25;;;;;;;;;;9905808;29;20099;-64
2022/10/17 02:26:01;;;;;;;8.38;4.70;;;;;;;;;;9924831;29;20049;-62
2022/10/17 02:31:02;;;;;;;7.05;5.20;;;;;;;;;;9924114;29;20092;-61
2022/10/17 02:36:04;;;;;;;7.03;5.78;;;;;;;;;;9905502;29;20081;-62
2022/10/17 02:41:03;;;;;;;11.60;7.53;;;;;;;;;;9920107;29;20497;-62
2022/10/17 02:46:01;;;;;;;13.88;6.82;;;;;;;;;;9928640;29;20057;-62
2022/10/17 02:51:04;;;;;;;8.18;6.60;;;;;;;;;;9927768;29;20073;-63
2022/10/17 02:56:06;;;;;;;12.68;7.15;;;;;;;;;;9914978;29;20101;-62
2022/10/17 03:01:04;;;;;;;9.48;6.47;;;;;;;;;;9913401;29;20056;-63
2022/10/17 03:06:04;;;;;;;12.13;8.30;;;;;;;;;;9927271;29;20056;-61
2022/10/17 03:11:02;;;;;;;15.98;9.90;;;;;;;;;;9911834;29;20092;-63
2022/10/17 03:16:01;;;;;;;13.88;10.57;;;;;;;;;;9927509;29;20135;-63
2022/10/17 03:20:59;;;;;;;21.67;13.77;;;;;;;;;;9927310;29;20095;-63
2022/10/17 03:26:02;;;;;;;20.17;17.05;;;;;;;;;;9924868;29;20049;-63
2022/10/17 03:31:06;;;;;;;20.77;12.17;;;;;;;;;;9927251;29;20077;-63
2022/10/17 03:36:05;;;;;;;16.10;10.52;;;;;;;;;;9908265;29;20088;-63
2022/10/17 03:41:05;;;;;;;11.13;7.32;;;;;;;;;;9923694;29;20076;-63
2022/10/17 03:46:04;;;;;;;11.60;8.15;;;;;;;;;;9922905;29;20486;-63
2022/10/17 03:51:04;;;;;;;10.93;6.35;;;;;;;;;;9924060;29;20077;-63
2022/10/17 03:56:10;;;;;;;7.50;5.85;;;;;;;;;;9922562;29;20511;-63
2022/10/17 04:01:09;;;;;;;11.65;7.35;;;;;;;;;;9925271;29;20077;-62
2022/10/17 04:06:10;;;;;;;12.80;6.75;;;;;;;;;;9929674;29;20091;-64
2022/10/17 04:11:14;;;;;;;11.45;6.25;;;;;;;;;;9934322;29;20088;-63
2022/10/17 04:16:15;;;;;;;15.18;6.40;;;;;;;;;;9931242;29;20120;-64
2022/10/17 04:21:24;;;;;;;12.68;6.57;;;;;;;;;;9926742;29;20539;-62
2022/10/17 04:26:24;;;;;;;11.27;5.95;;;;;;;;;;9928282;29;20072;-63
2022/10/17 04:31:23;;;;;;;7.32;5.45;;;;;;;;;;9912239;29;20088;-62
2022/10/17 04:36:40;;;;;;;13.48;6.35;;;;;;;;;;9922332;29;20093;-62
2022/10/17 04:41:40;;;;;;;13.75;6.13;;;;;;;;;;9922894;29;20091;-63
2022/10/17 04:46:39;;;;;;;10.85;5.88;;;;;;;;;;9927105;29;20045;-63
2022/10/17 04:51:38;;;;;;;15.18;6.32;;;;;;;;;;9923233;29;20084;-62
2022/10/17 04:56:49;;;;;;;21.52;8.45;;;;;;;;;;9928386;29;20095;-63
2022/10/17 05:01:51;;;;;;;26.92;10.25;;;;;;;;;;9923849;29;20072;-64
2022/10/17 05:06:51;;;;;;;19.05;9.43;;;;;;;;;;9925004;29;20099;-62
2022/10/17 05:12:12;;;;;;;12.98;8.27;;;;;;;;;;9934628;29;20570;-62
2022/10/17 05:17:14;;;;;;;22.17;9.25;;;;;;;;;;9921774;29;20202;-63
2022/10/17 05:22:12;;;;;;;20.23;11.30;;;;;;;;;;9926574;29;20542;-63
2022/10/17 05:27:13;;;;;;;19.60;8.70;;;;;;;;;;9938189;29;20072;-61
2022/10/17 05:32:12;;;;;;;12.18;9.25;;;;;;;;;;9960050;29;20510;-62
2022/10/17 05:37:10;;;;;;;20.80;12.43;;;;;;;;;;9947435;29;20501;-63
2022/10/17 05:42:13;;;;;;;22.92;11.70;;;;;;;;;;9921610;29;20447;-63
2022/10/17 05:47:11;;;;;;;37.17;18.70;;;;;;;;;;9930144;29;20087;-62
2022/10/17 05:52:10;;;;;;;56.08;28.10;;;;;;;;;;9923647;29;20076;-63
2022/10/17 05:57:25;;;;;;;57.85;27.38;;;;;;;;;;9935765;29;20100;-63
2022/10/17 06:02:24;;;;;;;54.45;25.23;;;;;;;;;;9922340;29;20475;-62
2022/10/17 06:07:23;;;;;;;44.90;23.48;;;;;;;;;;9921945;29;20076;-63
2022/10/17 06:12:23;;;;;;;53.63;26.40;;;;;;;;;;9921366;29;20088;-63
2022/10/17 06:17:27;;;;;;;46.60;29.58;;;;;;;;;;9932321;29;20527;-63
2022/10/17 06:22:28;;;;;;;45.80;25.58;;;;;;;;;;9940455;29;20085;-63
2022/10/17 06:27:27;;;;;;;53.03;22.40;;;;;;;;;;9928998;29;20080;-64
2022/10/17 06:32:28;;;;;;;44.88;24.98;;;;;;;;;;9931057;29;20076;-62
2022/10/17 06:37:30;;;;;;;41.33;24.10;;;;;;;;;;9923517;29;20084;-62
2022/10/17 06:42:35;;;;;;;45.95;25.77;;;;;;;;;;9924700;29;20077;-63
2022/10/17 06:47:55;;;;;;;43.03;22.42;;;;;;;;;;9919262;29;20076;-62
2022/10/17 06:53:17;;;;;;;37.33;21.73;;;;;;;;;;9926322;29;20115;-62
2022/10/17 06:58:15;;;;;;;38.53;19.83;;;;;;;;;;9925045;29;20084;-63
2022/10/17 07:03:26;;;;;;;34.88;17.88;;;;;;;;;;9930651;29;20526;-61
2022/10/17 07:08:25;;;;;;;40.28;19.38;;;;;;;;;;9930507;29;20522;-62
2022/10/17 07:13:23;;;;;;;41.97;19.65;;;;;;;;;;9924053;29;20082;-61
2022/10/17 07:18:22;;;;;;;45.17;22.15;;;;;;;;;;9926276;29;20092;-61
2022/10/17 07:23:22;;;;;;;39.50;18.52;;;;;;;;;;9924548;29;20076;-63
2022/10/17 07:28:20;;;;;;;40.30;18.40;;;;;;;;;;9923581;29;20087;-62
2022/10/17 07:33:19;;;;;;;29.63;15.35;;;;;;;;;;9924079;29;20523;-63
2022/10/17 07:38:17;;;;;;;44.40;31.00;;;;;;;;;;9929668;29;20095;-61
2022/10/17 07:43:17;;;;;;;29.92;16.70;;;;;;;;;;9929642;29;20578;-62
2022/10/17 07:48:17;;;;;;;33.95;15.77;;;;;;;;;;9908797;29;20136;-63
2022/10/17 07:53:15;;;;;;;128.07;89.70;;;;;;;;;;9924173;29;20093;-63
2022/10/17 07:58:13;;;;;;;27.23;16.17;;;;;;;;;;9924714;29;20491;-61
2022/10/17 08:03:13;;;;;;;33.03;18.20;;;;;;;;;;9924514;29;20541;-62
2022/10/17 08:08:11;;;;;;;24.98;12.23;;;;;;;;;;9924649;29;20084;-64
2022/10/17 08:13:10;;;;;;;22.05;11.50;;;;;;;;;;9924919;29;20079;-62
2022/10/17 08:18:08;;;;;;;20.50;12.25;;;;;;;;;;9925380;29;20083;-63
2022/10/17 08:23:07;;;;;;;23.48;10.80;;;;;;;;;;9924923;29;20076;-63
2022/10/17 08:28:06;;;;;;;22.40;10.73;;;;;;;;;;9924583;29;20083;-62
2022/10/17 08:33:09;;;;;;;14.98;8.55;;;;;;;;;;9924803;29;20081;-62
2022/10/17 08:38:09;;;;;;;13.43;7.70;;;;;;;;;;9925025;29;20081;-62
2022/10/17 08:43:16;;;;;;;14.88;8.25;;;;;;;;;;9924232;29;20118;-63
2022/10/17 08:48:15;;;;;;;14.38;9.48;;;;;;;;;;9924749;29;20076;-63
2022/10/17 08:53:18;;;;;;;10.50;8.80;;;;;;;;;;9927104;29;20080;-63
2022/10/17 08:58:22;;;;;;;22.88;11.75;;;;;;;;;;9923030;29;20096;-63
2022/10/17 09:03:26;;;;;;;38.05;23.75;;;;;;;;;;9923805;29;20087;-62
2022/10/17 09:08:34;;;;;;;33.30;10.37;;;;;;;;;;9921471;29;20068;-62
2022/10/17 09:13:42;;;;;;;17.05;12.18;;;;;;;;;;9911531;29;20080;-63
2022/10/17 09:18:46;;;;;;;14.13;8.85;;;;;;;;;;9913979;29;20096;-63
2022/10/17 09:23:48;;;;;;;15.45;11.30;;;;;;;;;;9915970;29;20073;-63
2022/10/17 09:28:58;;;;;;;9.32;4.80;;;;;;;;;;9913707;29;20088;-62
2022/10/17 09:33:57;;;;;;;11.38;7.72;;;;;;;;;;9915704;29;20087;-62
2022/10/17 09:39:00;;;;;;;9.73;4.63;;;;;;;;;;9920522;29;20181;-62
2022/10/17 09:44:05;;;;;;;8.48;4.13;;;;;;;;;;9929620;29;20076;-62
2022/10/17 09:49:06;;;;;;;6.57;3.60;;;;;;;;;;9905414;29;20522;-62
2022/10/17 09:54:11;;;;;;;7.30;3.30;;;;;;;;;;9926606;29;20083;-62
2022/10/17 09:59:10;;;;;;;10.13;4.70;;;;;;;;;;9933371;29;20091;-63
2022/10/17 10:04:11;;;;;;;4.47;3.67;;;;;;;;;;9929242;29;20412;-63
2022/10/17 10:09:21;;;;;;;6.53;3.22;;;;;;;;;;9941144;29;20080;-63
2022/10/17 10:14:21;;;;;;;10.18;3.78;;;;;;;;;;9929649;29;20081;-63
2022/10/17 10:19:20;;;;;;;6.95;4.00;;;;;;;;;;9933292;29;20085;-63
2022/10/17 10:24:20;;;;;;;5.80;3.50;;;;;;;;;;9937991;29;20067;-64
2022/10/17 10:29:23;;;;;;;10.52;4.00;;;;;;;;;;9930351;29;20064;-62
2022/10/17 10:34:22;;;;;;;8.43;3.35;;;;;;;;;;9928448;29;20087;-62
2022/10/17 10:39:28;;;;;;;6.78;4.47;;;;;;;;;;9928366;29;20453;-63
2022/10/17 10:44:28;;;;;;;14.77;5.32;;;;;;;;;;9930435;29;20449;-62
2022/10/17 10:49:30;;;;;;;5.00;3.70;;;;;;;;;;9928236;29;20076;-63
2022/10/17 10:54:33;;;;;;;6.70;3.55;;;;;;;;;;9936856;29;20091;-63
2022/10/17 10:59:35;;;;;;;8.18;3.88;;;;;;;;;;9928506;29;20554;-63
2022/10/17 11:04:36;;;;;;;7.10;3.72;;;;;;;;;;9928135;29;20080;-63
2022/10/17 11:09:43;;;;;;;8.43;3.63;;;;;;;;;;9927014;29;20087;-63
2022/10/17 11:14:45;;;;;;;8.90;3.92;;;;;;;;;;9925451;29;20096;-63
2022/10/17 11:19:45;;;;;;;8.80;4.50;;;;;;;;;;9925846;29;20088;-62
2022/10/17 11:24:55;;;;;;;7.63;3.40;;;;;;;;;;9927789;29;20075;-62
2022/10/17 11:29:53;;;;;;;8.10;3.42;;;;;;;;;;9926965;29;20080;-63
2022/10/17 11:34:54;;;;;;;9.68;4.70;;;;;;;;;;9927762;29;20106;-62
2022/10/17 11:39:56;;;;;;;7.78;4.00;;;;;;;;;;9923945;29;20084;-63
2022/10/17 11:44:58;;;;;;;9.73;4.65;;;;;;;;;;9923310;29;20531;-62
2022/10/17 11:49:58;;;;;;;7.93;4.05;;;;;;;;;;9929754;29;20096;-62
2022/10/17 11:55:20;;;;;;;10.05;3.55;;;;;;;;;;9923735;29;20076;-61
2022/10/17 12:00:22;;;;;;;8.05;2.80;;;;;;;;;;9927044;29;20096;-63
2022/10/17 12:05:25;;;;;;;7.38;3.28;;;;;;;;;;9925120;29;20099;-63
2022/10/17 12:10:33;;;;;;;9.95;3.63;;;;;;;;;;9924573;29;20089;-63
2022/10/17 12:15:32;;;;;;;10.73;4.90;;;;;;;;;;9923672;29;20093;-63
2022/10/17 12:20:34;;;;;;;10.95;4.25;;;;;;;;;;9943820;29;20080;-64
2022/10/17 12:25:38;;;;;;;7.80;4.00;;;;;;;;;;9925450;29;20085;-64
2022/10/17 12:30:49;;;;;;;4.80;3.28;;;;;;;;;;9924683;29;20072;-63
2022/10/17 12:35:48;;;;;;;10.32;4.25;;;;;;;;;;9924760;29;20077;-64
2022/10/17 12:40:54;;;;;;;9.55;3.60;;;;;;;;;;9924338;29;20081;-63
2022/10/17 12:45:53;;;;;;;9.52;3.47;;;;;;;;;;9924260;29;20049;-62
2022/10/17 12:51:01;;;;;;;9.38;3.47;;;;;;;;;;9924852;29;20535;-64
2022/10/17 12:56:22;;;;;;;6.50;3.30;;;;;;;;;;9922825;29;20053;-63
2022/10/17 13:01:25;;;;;;;6.70;2.63;;;;;;;;;;9921168;29;20087;-63
2022/10/17 13:06:26;;;;;;;11.60;3.40;;;;;;;;;;9923266;29;20491;-63
2022/10/17 13:11:27;;;;;;;8.80;3.88;;;;;;;;;;9926715;29;20468;-63
2022/10/17 13:16:29;;;;;;;13.88;5.63;;;;;;;;;;9922018;29;20573;-62
2022/10/17 13:21:28;;;;;;;8.18;3.22;;;;;;;;;;9922250;29;20068;-62
2022/10/17 13:26:28;;;;;;;8.30;3.10;;;;;;;;;;9922506;29;20080;-63
2022/10/17 13:31:27;;;;;;;6.30;3.35;;;;;;;;;;9922147;29;20080;-63
2022/10/17 13:36:27;;;;;;;5.07;3.35;;;;;;;;;;9923480;29;20076;-63
2022/10/17 13:41:26;;;;;;;9.73;4.30;;;;;;;;;;9923344;29;20080;-63
2022/10/17 13:46:36;;;;;;;12.50;3.33;;;;;;;;;;9923092;29;20076;-63
2022/10/17 13:51:36;;;;;;;9.90;3.38;;;;;;;;;;9924908;29;20086;-62
2022/10/17 13:56:35;;;;;;;8.98;3.20;;;;;;;;;;9922914;29;20083;-63
2022/10/17 14:01:37;;;;;;;5.35;3.10;;;;;;;;;;9922488;29;20546;-63
2022/10/17 14:06:43;;;;;;;3.92;2.88;;;;;;;;;;9923100;29;20547;-62
2022/10/17 14:11:56;;;;;;;12.15;2.75;;;;;;;;;;9924170;29;20083;-63
2022/10/17 14:16:56;;;;;;;6.68;2.45;;;;;;;;;;9922272;29;20083;-64
2022/10/17 14:21:55;;;;;;;6.75;3.25;;;;;;;;;;9919102;29;20077;-62
2022/10/17 14:26:57;;;;;;;6.10;3.20;;;;;;;;;;9919845;29;20072;-63
2022/10/17 14:32:01;;;;;;;6.20;4.68;;;;;;;;;;9919865;29;20290;-63
2022/10/17 14:37:00;;;;;;;10.00;4.32;;;;;;;;;;9919818;29;20087;-63
2022/10/17 14:41:58;;;;;;;13.60;4.05;;;;;;;;;;9925923;29;20076;-63
2022/10/17 14:47:04;;;;;;;17.52;5.95;;;;;;;;;;9928453;29;20072;-63
2022/10/17 14:52:26;;;;;;;38.47;8.32;;;;;;;;;;9927407;29;20084;-63
2022/10/17 14:57:28;;;;;;;32.35;8.10;;;;;;;;;;9926440;29;20079;-63
2022/10/17 15:02:28;;;;;;;14.57;5.63;;;;;;;;;;9939198;29;20081;-62
2022/10/17 15:07:28;;;;;;;32.22;8.35;;;;;;;;;;9931710;29;20080;-63
2022/10/17 15:12:26;;;;;;;26.35;7.00;;;;;;;;;;9926657;29;20108;-63
2022/10/17 15:17:26;;;;;;;14.02;5.43;;;;;;;;;;9925995;29;20049;-64
2022/10/17 15:22:26;;;;;;;13.05;4.95;;;;;;;;;;9922968;29;20085;-62
2022/10/17 15:27:26;;;;;;;10.82;4.15;;;;;;;;;;9924705;29;20064;-63
2022/10/17 15:32:24;;;;;;;15.57;5.40;;;;;;;;;;9926014;29;20546;-63
2022/10/17 15:37:24;;;;;;;20.60;12.27;;;;;;;;;;9926611;29;20077;-63
2022/10/17 15:42:27;;;;;;;25.83;9.07;;;;;;;;;;9925619;29;20068;-62
2022/10/17 15:47:26;;;;;;;16.67;10.70;;;;;;;;;;9926434;29;20076;-63
2022/10/17 15:52:26;;;;;;;13.82;8.23;;;;;;;;;;9925309;29;20077;-63
2022/10/17 15:57:27;;;;;;;6.30;4.85;;;;;;;;;;9925386;29;20065;-63
2022/10/17 16:02:26;;;;;;;7.70;5.47;;;;;;;;;;9925296;29;20087;-63
2022/10/17 16:07:24;;;;;;;10.48;4.40;;;;;;;;;;9925055;29;20069;-68
2022/10/17 16:12:25;;;;;;;6.65;3.90;;;;;;;;;;9925508;29;20084;-66
2022/10/17 16:17:25;;;;;;;7.32;3.17;;;;;;;;;;9930027;29;20480;-67
2022/10/17 16:22:26;;;;;;;8.30;3.20;;;;;;;;;;9926028;29;20552;-68
2022/10/17 16:27:25;;;;;;;5.70;3.05;;;;;;;;;;9925871;29;20076;-67
2022/10/17 16:32:24;;;;;;;10.82;6.40;;;;;;;;;;9925136;29;20519;-67
2022/10/17 16:37:23;;;;;;;10.05;6.63;;;;;;;;;;9925499;29;20089;-68
2022/10/17 16:42:21;;;;;;;6.75;4.78;;;;;;;;;;9925257;29;20080;-67
2022/10/17 16:47:19;;;;;;;28.80;19.70;;;;;;;;;;9927900;29;20083;-66
2022/10/17 16:52:19;;;;;;;30.48;25.83;;;;;;;;;;9925416;29;20107;-67
2022/10/17 16:57:18;;;;;;;19.17;17.17;;;;;;;;;;9924825;29;20269;-67
2022/10/17 17:02:17;;;;;;;12.18;10.50;;;;;;;;;;9921685;29;20083;-67
2022/10/17 17:07:20;;;;;;;14.40;11.60;;;;;;;;;;9925601;29;20475;-68
2022/10/17 17:12:19;;;;;;;14.07;10.23;;;;;;;;;;9922064;29;20104;-67
2022/10/17 17:17:18;;;;;;;11.75;7.47;;;;;;;;;;9920709;29;20073;-67
2022/10/17 17:22:35;;;;;;;8.70;5.65;;;;;;;;;;9924197;29;20088;-67
2022/10/17 17:27:34;;;;;;;8.25;6.80;;;;;;;;;;9925218;29;20085;-67
2022/10/17 17:32:32;;;;;;;8.40;7.25;;;;;;;;;;9930116;29;20086;-67
2022/10/17 17:37:30;;;;;;;9.02;5.13;;;;;;;;;;9933232;29;20068;-66
2022/10/17 17:42:30;;;;;;;10.52;5.63;;;;;;;;;;9928935;29;20080;-66
2022/10/17 17:47:29;;;;;;;7.50;4.50;;;;;;;;;;9936596;29;20486;-67
2022/10/17 17:52:30;;;;;;;6.38;3.50;;;;;;;;;;9919799;29;20057;-66
2022/10/17 17:57:35;;;;;;;8.52;3.67;;;;;;;;;;9922140;29;20072;-66
2022/10/17 18:02:34;;;;;;;10.25;5.75;;;;;;;;;;9928704;29;20479;-65
2022/10/17 18:07:36;;;;;;;9.18;5.15;;;;;;;;;;9931085;29;20080;-67
2022/10/17 18:12:36;;;;;;;7.00;4.60;;;;;;;;;;9925513;29;20081;-66
2022/10/17 18:17:34;;;;;;;10.50;6.57;;;;;;;;;;9938547;29;20089;-67
2022/10/17 18:22:34;;;;;;;11.02;5.63;;;;;;;;;;9939908;29;20084;-67
2022/10/17 18:27:35;;;;;;;9.00;5.07;;;;;;;;;;9934263;29;20084;-67
2022/10/17 18:32:38;;;;;;;11.30;5.60;;;;;;;;;;9937759;29;20080;-66
2022/10/17 18:37:36;;;;;;;8.52;5.32;;;;;;;;;;9929909;29;20083;-66
2022/10/17 18:42:34;;;;;;;10.27;4.82;;;;;;;;;;9937015;29;20087;-66
2022/10/17 18:47:35;;;;;;;6.45;4.50;;;;;;;;;;9947076;29;20455;-67
2022/10/17 18:52:41;;;;;;;7.95;4.20;;;;;;;;;;9958045;29;20166;-66
2022/10/17 18:57:39;;;;;;;4.07;3.15;;;;;;;;;;9932723;29;20202;-66
2022/10/17 19:02:38;;;;;;;5.63;3.15;;;;;;;;;;9935933;29;20091;-68
2022/10/17 19:07:37;;;;;;;6.10;4.88;;;;;;;;;;9939185;29;20455;-65
2022/10/17 19:12:36;;;;;;;6.95;4.72;;;;;;;;;;9939154;29;20088;-67
2022/10/17 19:17:36;;;;;;;7.60;4.07;;;;;;;;;;9931063;29;20147;-66
2022/10/17 19:22:35;;;;;;;8.85;5.45;;;;;;;;;;9934940;29;20084;-66
2022/10/17 19:27:34;;;;;;;8.68;3.97;;;;;;;;;;9928472;29;20076;-67
2022/10/17 19:32:35;;;;;;;11.73;3.70;;;;;;;;;;9927584;29;20506;-67
2022/10/17 19:37:34;;;;;;;8.77;5.50;;;;;;;;;;9930796;29;20072;-67
2022/10/17 19:42:33;;;;;;;11.60;5.07;;;;;;;;;;9927225;29;20076;-67
2022/10/17 19:47:33;;;;;;;6.18;4.80;;;;;;;;;;9928045;29;20084;-67
2022/10/17 19:52:34;;;;;;;8.95;4.03;;;;;;;;;;9955026;29;20103;-67
2022/10/17 19:57:35;;;;;;;11.82;5.22;;;;;;;;;;9924235;29;20049;-67
2022/10/17 20:02:34;;;;;;;11.80;7.03;;;;;;;;;;9929932;29;20088;-67
2022/10/17 20:07:32;;;;;;;11.05;6.85;;;;;;;;;;9927150;29;20084;-66
2022/10/17 20:12:30;;;;;;;9.25;7.43;;;;;;;;;;9925511;29;20530;-67
2022/10/17 20:17:29;;;;;;;5.30;3.78;;;;;;;;;;9927732;29;20069;-66
2022/10/17 20:22:29;;;;;;;6.72;4.70;;;;;;;;;;9925979;29;20092;-65
2022/10/17 20:27:27;;;;;;;6.68;3.78;;;;;;;;;;9937987;29;20072;-67
2022/10/17 20:32:26;;;;;;;8.98;3.70;;;;;;;;;;9933999;29;20068;-66
2022/10/17 20:37:25;;;;;;;5.80;4.25;;;;;;;;;;9928925;29;20139;-65
2022/10/17 20:42:27;;;;;;;8.23;3.92;;;;;;;;;;9932842;29;20077;-65
2022/10/17 20:47:25;;;;;;;8.80;3.30;;;;;;;;;;9924363;29;20073;-66
2022/10/17 20:52:41;;;;;;;4.15;3.45;;;;;;;;;;9938622;29;20096;-66
2022/10/17 20:57:41;;;;;;;7.63;4.13;;;;;;;;;;9926571;29;20452;-68
2022/10/17 21:02:39;;;;;;;4.95;4.18;;;;;;;;;;9932132;29;20522;-64
2022/10/17 21:07:37;;;;;;;8.18;4.18;;;;;;;;;;9933003;29;20545;-66
2022/10/17 21:12:35;;;;;;;7.03;3.22;;;;;;;;;;9934040;29;20071;-65
2022/10/17 21:17:52;;;;;;;8.18;3.33;;;;;;;;;;9924601;29;20076;-66
2022/10/17 21:22:51;;;;;;;6.80;4.05;;;;;;;;;;9932699;29;20084;-68
2022/10/17 21:27:51;;;;;;;4.70;3.55;;;;;;;;;;9920930;29;20139;-66
2022/10/17 21:32:54;;;;;;;7.00;4.43;;;;;;;;;;9925099;29;20076;-65
2022/10/17 21:37:53;;;;;;;7.35;5.25;;;;;;;;;;9921002;29;20092;-66
2022/10/17 21:42:52;;;;;;;7.88;4.57;;;;;;;;;;9920935;29;20107;-66
2022/10/17 21:47:50;;;;;;;5.63;4.32;;;;;;;;;;9938784;29;20087;-66
2022/10/17 21:53:10;;;;;;;5.95;3.30;;;;;;;;;;9926217;29;20095;-66
2022/10/17 21:58:08;;;;;;;8.07;4.05;;;;;;;;;;9924641;29;20073;-65
2022/10/17 22:03:08;;;;;;;5.03;3.90;;;;;;;;;;9925756;29;20085;-66
2022/10/17 22:08:06;;;;;;;8.55;3.83;;;;;;;;;;9926511;29;20077;-67
2022/10/17 22:13:06;;;;;;;7.55;4.82;;;;;;;;;;9919677;29;20103;-67
2022/10/17 22:18:04;;;;;;;7.32;4.43;;;;;;;;;;9924699;29;20095;-67
2022/10/17 22:23:02;;;;;;;5.50;4.05;;;;;;;;;;9924112;29;20083;-66
2022/10/17 22:28:00;;;;;;;5.15;4.38;;;;;;;;;;9927268;29;20136;-66
2022/10/17 22:33:00;;;;;;;7.40;5.63;;;;;;;;;;9923146;29;20527;-66
2022/10/17 22:37:58;;;;;;;6.28;4.65;;;;;;;;;;9922662;29;20083;-66
2022/10/17 22:42:57;;;;;;;6.47;3.90;;;;;;;;;;9927674;29;20092;-66
2022/10/17 22:47:55;;;;;;;7.88;4.07;;;;;;;;;;9920688;29;20080;-66
2022/10/17 22:52:55;;;;;;;7.43;3.78;;;;;;;;;;9920926;29;20087;-65
2022/10/17 22:57:53;;;;;;;9.65;4.82;;;;;;;;;;9920746;29;20864;-66
2022/10/17 23:02:53;;;;;;;14.68;5.20;;;;;;;;;;9928644;29;20085;-66
2022/10/17 23:07:52;;;;;;;6.40;4.90;;;;;;;;;;9925530;29;20057;-66
2022/10/17 23:12:52;;;;;;;8.93;5.18;;;;;;;;;;9926000;29;20155;-66
2022/10/17 23:17:51;;;;;;;7.93;4.15;;;;;;;;;;9942401;29;20084;-67
2022/10/17 23:22:49;;;;;;;6.68;4.80;;;;;;;;;;9930213;29;20076;-66
2022/10/17 23:27:48;;;;;;;8.60;3.83;;;;;;;;;;9926244;29;20077;-67
2022/10/17 23:32:48;;;;;;;10.07;4.00;;;;;;;;;;9927063;29;20467;-68
2022/10/17 23:37:46;;;;;;;5.82;4.07;;;;;;;;;;9928764;29;20084;-66
2022/10/17 23:42:44;;;;;;;9.18;4.30;;;;;;;;;;9926715;29;20474;-67
2022/10/17 23:47:43;;;;;;;6.18;4.32;;;;;;;;;;9927004;29;20088;-66
2022/10/17 23:52:42;;;;;;;11.38;5.55;;;;;;;;;;9934179;29;20080;-66
2022/10/17 23:57:40;;;;;;;4.85;3.70;;;;;;;;;;9928838;29;20076;-65
